Time;durP1;ratioP1;P1;durP2;ratioP2;P2;SDS_P1;SDS_P2;PMS_P1;PMS_P2;Temp;Humidity;BMP_temperature;BMP_pressure;BME280_temperature;BME280_humidity;BME280_pressure;Samples;Min_cycle;Max_cycle;Signal;HPM_P1;HPM_P2
2023/11/13 00:01:48;;;;;;;1.30;1.00;;;;;;;2.11;100.00;92202.84;4938923;29;20042;-78
2023/11/13 00:04:13;;;;;;;1.45;1.10;;;;;;;2.11;100.00;92197.69;4957095;29;20039;-78
2023/11/13 00:06:39;;;;;;;1.10;0.90;;;;;;;2.12;100.00;92199.25;4956081;28;20042;-79
2023/11/13 00:09:04;;;;;;;1.05;0.95;;;;;;;2.19;100.00;92192.09;4957793;29;20038;-79
2023/11/13 00:11:30;;;;;;;1.30;1.00;;;;;;;2.19;100.00;92186.16;4957355;29;20027;-78
2023/11/13 00:13:56;;;;;;;1.45;1.17;;;;;;;2.23;100.00;92188.03;4958062;29;20135;-79
2023/11/13 00:16:21;;;;;;;1.55;0.95;;;;;;;2.28;100.00;92185.50;4956247;29;20039;-78
2023/11/13 00:18:47;;;;;;;1.38;1.10;;;;;;;2.77;100.00;92189.84;4947974;29;20059;-79
2023/11/13 00:21:16;;;;;;;1.70;1.00;;;;;;;2.78;100.00;92198.38;4936304;29;20306;-77
2023/11/13 00:23:45;;;;;;;1.20;0.93;;;;;;;2.73;100.00;92193.94;4939539;29;20094;-79
2023/11/13 00:26:11;;;;;;;1.85;1.17;;;;;;;2.69;100.00;92196.22;4940073;29;20526;-78
2023/11/13 00:28:42;;;;;;;1.00;0.88;;;;;;;2.64;100.00;92182.50;4938561;29;20039;-79
2023/11/13 00:31:08;;;;;;;1.38;1.10;;;;;;;2.66;100.00;92185.63;4956510;29;20054;-78
2023/11/13 00:33:34;;;;;;;1.27;1.15;;;;;;;2.63;100.00;92180.91;4956592;29;20031;-79
2023/11/13 00:35:59;;;;;;;1.73;1.00;;;;;;;2.59;100.00;92178.06;4956575;29;20059;-79
2023/11/13 00:38:25;;;;;;;3.13;1.33;;;;;;;2.58;100.00;92183.47;4970652;28;20485;-79
2023/11/13 00:40:51;;;;;;;1.92;1.08;;;;;;;2.56;100.00;92201.78;4938256;29;20028;-79
2023/11/13 00:43:19;;;;;;;1.10;1.00;;;;;;;2.56;100.00;92199.19;4956120;29;20062;-78
2023/11/13 00:45:45;;;;;;;1.35;0.90;;;;;;;2.53;100.00;92184.19;4956333;29;20047;-79
2023/11/13 00:48:10;;;;;;;1.63;1.02;;;;;;;2.64;100.00;92208.34;4956012;28;20586;-77
2023/11/13 00:50:36;;;;;;;1.40;0.95;;;;;;;2.82;100.00;92189.13;4934028;29;20415;-78
2023/11/13 00:53:01;;;;;;;1.95;0.90;;;;;;;2.91;100.00;92179.88;4936069;29;20039;-78
2023/11/13 00:55:27;;;;;;;1.48;1.05;;;;;;;2.96;100.00;92190.25;4930013;29;20035;-78
2023/11/13 00:57:53;;;;;;;1.35;0.82;;;;;;;2.97;100.00;92173.69;4955515;28;20047;-79
2023/11/13 01:00:19;;;;;;;1.23;1.00;;;;;;;3.03;100.00;92195.22;4937171;29;20035;-78
2023/11/13 01:02:45;;;;;;;1.95;1.00;;;;;;;3.08;100.00;92198.63;4937377;29;20069;-78
2023/11/13 01:05:11;;;;;;;0.95;0.88;;;;;;;3.09;100.00;92200.19;4955383;29;20325;-79
2023/11/13 01:07:37;;;;;;;1.15;0.90;;;;;;;3.08;100.00;92192.66;4955647;28;20035;-79
2023/11/13 01:10:04;;;;;;;1.15;1.05;;;;;;;3.11;100.00;92185.22;4955739;29;20472;-79
2023/11/13 01:12:30;;;;;;;1.15;1.00;;;;;;;3.16;100.00;92189.63;4922397;29;20077;-78
2023/11/13 01:14:56;;;;;;;0.82;0.82;;;;;;;3.19;100.00;92193.53;4955895;29;20035;-78
2023/11/13 01:17:23;;;;;;;1.13;0.80;;;;;;;3.19;100.00;92198.72;4938266;29;20050;-78
2023/11/13 01:19:49;;;;;;;3.40;1.05;;;;;;;3.19;100.00;92196.13;4956345;29;20039;-77
2023/11/13 01:22:14;;;;;;;0.98;0.80;;;;;;;3.24;100.00;92190.97;4955271;29;20040;-79
2023/11/13 01:24:40;;;;;;;2.13;1.05;;;;;;;3.71;100.00;92200.59;4954587;29;20039;-78
2023/11/13 01:27:06;;;;;;;1.00;0.90;;;;;;;3.71;100.00;92198.00;4937744;29;20118;-78
2023/11/13 01:29:33;;;;;;;1.80;1.10;;;;;;;3.64;100.00;92205.22;4934825;29;20094;-79
2023/11/13 01:31:59;;;;;;;0.82;0.82;;;;;;;3.54;100.00;92211.91;4937763;29;20039;-79
2023/11/13 01:34:25;;;;;;;2.90;1.00;;;;;;;3.48;100.00;92201.75;4953730;29;20066;-79
2023/11/13 01:36:51;;;;;;;1.15;0.82;;;;;;;3.44;100.00;92200.69;4935333;29;20035;-78
2023/11/13 01:39:16;;;;;;;1.13;0.88;;;;;;;3.39;100.00;92183.31;4956988;29;20047;-77
2023/11/13 01:41:43;;;;;;;1.13;1.00;;;;;;;3.32;100.00;92187.94;4956530;29;20054;-79
2023/11/13 01:44:09;;;;;;;1.00;0.90;;;;;;;3.27;100.00;92187.91;4956760;29;20534;-78
2023/11/13 01:46:35;;;;;;;2.45;1.08;;;;;;;3.23;100.00;92210.13;4938731;29;20039;-79
2023/11/13 01:49:03;;;;;;;1.83;0.90;;;;;;;3.19;100.00;92194.31;4955694;29;20430;-79
2023/11/13 01:51:30;;;;;;;3.90;0.80;;;;;;;3.19;100.00;92183.19;4955240;29;20032;-78
2023/11/13 01:53:57;;;;;;;1.13;0.77;;;;;;;3.14;100.00;92181.34;4938127;29;20049;-78
2023/11/13 01:56:27;;;;;;;1.30;0.95;;;;;;;3.12;100.00;92181.59;4938210;29;20564;-79
2023/11/13 01:58:57;;;;;;;0.85;0.80;;;;;;;3.09;100.00;92179.50;4938548;29;20055;-79
2023/11/13 02:01:25;;;;;;;0.88;0.80;;;;;;;3.06;100.00;92174.84;4937445;29;20039;-79
2023/11/13 02:03:54;;;;;;;1.20;0.80;;;;;;;3.12;100.00;92191.16;4937961;29;20505;-78
2023/11/13 02:06:22;;;;;;;1.02;0.80;;;;;;;3.11;100.00;92185.22;4958846;28;20073;-79
2023/11/13 02:08:48;;;;;;;1.02;0.90;;;;;;;3.18;100.00;92202.34;4957945;29;20039;-79
2023/11/13 02:11:16;;;;;;;2.00;0.80;;;;;;;3.20;100.00;92195.06;4941209;29;20042;-78
2023/11/13 02:13:46;;;;;;;0.98;0.85;;;;;;;3.20;100.00;92190.72;4940909;29;20443;-79
2023/11/13 02:16:12;;;;;;;0.90;0.85;;;;;;;3.18;100.00;92191.97;4958360;29;20043;-77
2023/11/13 02:18:38;;;;;;;0.85;0.80;;;;;;;3.16;100.00;92201.81;4955243;29;20530;-78
2023/11/13 02:21:04;;;;;;;0.93;0.70;;;;;;;3.10;100.00;92191.41;4922458;29;20031;-79
2023/11/13 02:23:30;;;;;;;1.50;1.00;;;;;;;3.11;100.00;92205.91;4939827;29;20042;-78
2023/11/13 02:25:57;;;;;;;0.70;0.70;;;;;;;3.10;100.00;92204.31;4936865;29;20433;-79
2023/11/13 02:28:24;;;;;;;0.77;0.77;;;;;;;3.09;100.00;92200.19;4941149;29;20407;-79
2023/11/13 02:30:50;;;;;;;0.68;0.68;;;;;;;3.13;100.00;92208.25;4941190;29;20103;-79
2023/11/13 02:33:16;;;;;;;1.27;0.85;;;;;;;3.16;100.00;92214.72;4958786;29;20039;-78
2023/11/13 02:35:42;;;;;;;2.08;0.80;;;;;;;3.20;100.00;92215.78;4958251;29;20478;-78
2023/11/13 02:38:09;;;;;;;1.45;0.90;;;;;;;3.20;100.00;92202.84;4958154;28;20047;-79
2023/11/13 02:40:34;;;;;;;1.00;0.77;;;;;;;3.19;100.00;92202.06;4959422;29;20400;-79
2023/11/13 02:43:00;;;;;;;0.60;0.60;;;;;;;3.19;100.00;92194.31;4958921;29;20053;-78
2023/11/13 02:45:26;;;;;;;0.70;0.60;;;;;;;3.17;100.00;92188.59;4941378;29;20309;-79
2023/11/13 02:47:55;;;;;;;1.00;0.90;;;;;;;3.20;100.00;92195.88;4958727;29;20058;-79
2023/11/13 02:50:21;;;;;;;0.85;0.70;;;;;;;3.20;100.00;92190.72;4939472;29;20024;-78
2023/11/13 02:52:47;;;;;;;0.85;0.70;;;;;;;3.19;100.00;92194.31;4957874;29;20129;-79
2023/11/13 02:55:13;;;;;;;1.05;0.80;;;;;;;3.20;100.00;92189.91;4957602;29;20034;-78
2023/11/13 02:57:39;;;;;;;1.77;1.00;;;;;;;3.19;100.00;92209.06;4958479;28;20031;-79
2023/11/13 03:00:11;;;;;;;1.00;0.80;;;;;;;3.17;100.00;92216.28;4940695;29;20039;-77
2023/11/13 03:02:37;;;;;;;1.00;0.90;;;;;;;3.15;100.00;92201.00;4958538;29;20039;-77
2023/11/13 03:05:03;;;;;;;1.10;1.00;;;;;;;3.18;100.00;92197.94;4957520;29;20062;-80
2023/11/13 03:07:29;;;;;;;0.93;0.82;;;;;;;3.18;100.00;92215.25;4940806;29;20510;-79
2023/11/13 03:09:54;;;;;;;1.80;0.90;;;;;;;3.21;100.00;92228.47;4957567;29;20055;-78
2023/11/13 03:12:26;;;;;;;1.20;0.93;;;;;;;3.17;100.00;92231.78;4958456;29;20054;-79
2023/11/13 03:14:52;;;;;;;0.70;0.70;;;;;;;3.20;100.00;92236.47;4958079;29;20093;-78
2023/11/13 03:17:21;;;;;;;1.15;0.80;;;;;;;3.36;100.00;92235.59;4955945;28;20454;-78
2023/11/13 03:19:49;;;;;;;0.75;0.75;;;;;;;3.39;100.00;92224.72;4939917;29;20454;-78
2023/11/13 03:22:15;;;;;;;1.30;0.80;;;;;;;3.45;100.00;92233.31;4957772;29;20031;-79
2023/11/13 03:24:41;;;;;;;2.78;0.80;;;;;;;3.44;100.00;92234.34;4957358;29;20062;-78
2023/11/13 03:27:07;;;;;;;1.08;0.82;;;;;;;3.37;100.00;92237.13;4940179;29;20058;-78
2023/11/13 03:29:33;;;;;;;0.80;0.80;;;;;;;3.32;100.00;92234.50;4958079;29;20023;-78
2023/11/13 03:31:58;;;;;;;0.80;0.70;;;;;;;3.30;100.00;92231.38;4957815;29;20403;-79
2023/11/13 03:34:24;;;;;;;0.73;0.73;;;;;;;3.29;100.00;92222.06;4957617;29;20046;-79
2023/11/13 03:36:50;;;;;;;1.15;0.98;;;;;;;3.25;100.00;92221.00;4924444;29;20067;-79
2023/11/13 03:39:16;;;;;;;0.93;0.70;;;;;;;3.23;100.00;92216.06;4939640;29;20039;-78
2023/11/13 03:41:42;;;;;;;1.25;0.90;;;;;;;3.18;100.00;92228.19;4939762;29;20041;-79
2023/11/13 03:44:07;;;;;;;1.13;0.90;;;;;;;3.16;100.00;92227.66;4940096;29;20553;-78
2023/11/13 03:46:33;;;;;;;1.13;0.80;;;;;;;3.13;100.00;92236.69;4924328;28;20130;-79
2023/11/13 03:48:59;;;;;;;1.38;0.75;;;;;;;3.13;100.00;92244.47;4939677;29;20047;-77
2023/11/13 03:51:25;;;;;;;1.00;0.90;;;;;;;3.13;100.00;92242.66;4910685;29;20031;-79
2023/11/13 03:53:51;;;;;;;0.70;0.70;;;;;;;3.15;100.00;92237.22;4937744;29;20039;-79
2023/11/13 03:56:21;;;;;;;1.13;0.90;;;;;;;3.16;100.00;92240.59;4923154;29;20046;-79
2023/11/13 03:58:47;;;;;;;1.38;1.00;;;;;;;3.12;100.00;92222.97;4956984;29;20430;-78
2023/11/13 04:01:15;;;;;;;0.88;0.75;;;;;;;3.15;100.00;92202.81;4956428;29;20094;-78
2023/11/13 04:03:41;;;;;;;0.77;0.77;;;;;;;3.16;100.00;92206.97;4939540;29;20034;-79
2023/11/13 04:06:07;;;;;;;1.15;0.90;;;;;;;3.14;100.00;92209.78;4956926;29;20459;-79
2023/11/13 04:08:32;;;;;;;0.70;0.70;;;;;;;3.13;100.00;92219.38;4956745;29;20046;-78
2023/11/13 04:10:58;;;;;;;0.98;0.80;;;;;;;3.10;100.00;92219.06;4956372;29;20071;-79
2023/11/13 04:13:24;;;;;;;1.63;0.90;;;;;;;3.12;100.00;92220.38;4957138;29;20578;-78
2023/11/13 04:15:51;;;;;;;0.95;0.82;;;;;;;3.11;100.00;92220.66;4939898;29;20031;-79
2023/11/13 04:18:17;;;;;;;0.90;0.90;;;;;;;3.11;100.00;92226.59;4940090;29;20035;-78
2023/11/13 04:20:44;;;;;;;0.60;0.60;;;;;;;3.09;100.00;92233.81;4922942;29;20466;-78
2023/11/13 04:23:09;;;;;;;1.00;0.70;;;;;;;3.07;100.00;92233.28;4939305;29;20034;-78
2023/11/13 04:25:35;;;;;;;0.63;0.63;;;;;;;3.08;100.00;92245.16;4956404;29;20039;-79
2023/11/13 04:28:02;;;;;;;1.08;0.80;;;;;;;3.09;100.00;92241.56;4956057;28;20039;-79
2023/11/13 04:30:28;;;;;;;0.70;0.70;;;;;;;3.08;100.00;92219.31;4956641;29;20049;-78
2023/11/13 04:32:54;;;;;;;0.80;0.80;;;;;;;3.08;100.00;92226.28;4955864;29;20035;-77
2023/11/13 04:35:19;;;;;;;0.85;0.77;;;;;;;3.06;100.00;92238.69;4953408;29;20467;-77
2023/11/13 04:37:45;;;;;;;1.40;0.80;;;;;;;3.06;100.00;92242.06;4935653;29;20046;-79
2023/11/13 04:40:11;;;;;;;0.93;0.80;;;;;;;3.06;100.00;92236.91;4967380;28;20047;-79
2023/11/13 04:42:38;;;;;;;0.80;0.80;;;;;;;3.10;100.00;92252.69;4945578;29;20031;-79
2023/11/13 04:45:05;;;;;;;0.75;0.75;;;;;;;3.11;100.00;92246.50;4955468;29;20042;-79
2023/11/13 04:47:31;;;;;;;1.65;1.10;;;;;;;3.08;100.00;92246.97;4956450;28;20500;-79
2023/11/13 04:49:57;;;;;;;2.20;1.33;;;;;;;3.05;100.00;92240.50;4955916;29;20036;-77
2023/11/13 04:52:23;;;;;;;3.22;1.60;;;;;;;3.00;100.00;92224.94;4956548;29;20030;-78
2023/11/13 04:54:48;;;;;;;1.88;1.10;;;;;;;3.01;100.00;92226.50;4956181;29;20491;-78
2023/11/13 04:57:14;;;;;;;1.15;0.90;;;;;;;3.02;100.00;92240.22;4955999;28;20175;-79
2023/11/13 04:59:40;;;;;;;2.42;1.20;;;;;;;3.00;100.00;92222.34;4938702;29;20035;-79
2023/11/13 05:02:07;;;;;;;0.75;0.73;;;;;;;2.98;100.00;92214.06;4956510;29;20039;-78
2023/11/13 05:04:33;;;;;;;0.68;0.68;;;;;;;2.98;100.00;92221.81;4954664;29;20036;-78
2023/11/13 05:06:59;;;;;;;0.75;0.70;;;;;;;2.97;100.00;92220.25;4940068;29;20635;-78
2023/11/13 05:09:26;;;;;;;0.80;0.80;;;;;;;2.96;100.00;92223.88;4946025;29;20094;-78
2023/11/13 05:11:52;;;;;;;1.00;0.90;;;;;;;2.97;100.00;92243.50;4937606;29;20039;-79
2023/11/13 05:14:18;;;;;;;1.13;0.85;;;;;;;2.98;100.00;92239.94;4955497;29;20039;-77
2023/11/13 05:16:44;;;;;;;0.82;0.80;;;;;;;3.00;100.00;92240.47;4956297;28;20510;-78
2023/11/13 05:19:09;;;;;;;1.40;1.00;;;;;;;2.95;100.00;92245.59;4955334;29;20027;-79
2023/11/13 05:21:35;;;;;;;2.70;1.00;;;;;;;2.99;100.00;92251.03;4955751;29;20417;-79
2023/11/13 05:24:00;;;;;;;1.00;0.90;;;;;;;2.97;100.00;92253.88;4939021;29;20028;-78
2023/11/13 05:26:26;;;;;;;0.65;0.65;;;;;;;3.01;100.00;92270.44;4955143;28;20050;-78
2023/11/13 05:28:53;;;;;;;0.80;0.80;;;;;;;3.03;100.00;92263.22;4955861;29;20031;-78
2023/11/13 05:31:19;;;;;;;1.00;0.88;;;;;;;3.06;100.00;92260.19;4955117;29;20122;-79
2023/11/13 05:33:45;;;;;;;2.33;0.82;;;;;;;3.07;100.00;92245.44;4953711;29;20117;-79
2023/11/13 05:36:10;;;;;;;0.85;0.70;;;;;;;3.09;100.00;92254.50;4953672;29;20062;-78
2023/11/13 05:38:36;;;;;;;1.05;0.90;;;;;;;3.09;100.00;92257.09;4937984;29;20047;-80
2023/11/13 05:41:02;;;;;;;0.80;0.80;;;;;;;3.04;100.00;92246.72;4951856;28;20082;-81
2023/11/13 05:43:29;;;;;;;1.02;0.90;;;;;;;3.09;100.00;92248.56;4943841;29;20050;-82
2023/11/13 05:45:55;;;;;;;0.82;0.80;;;;;;;3.09;100.00;92246.75;4922253;29;20435;-80
2023/11/13 05:48:21;;;;;;;1.00;0.90;;;;;;;3.09;100.00;92251.16;4933813;29;20042;-81
2023/11/13 05:50:46;;;;;;;0.73;0.73;;;;;;;3.07;100.00;92266.91;4952486;29;20123;-81
2023/11/13 05:53:12;;;;;;;1.33;1.00;;;;;;;3.06;100.00;92260.19;4956390;29;20039;-82
2023/11/13 05:55:38;;;;;;;0.90;0.90;;;;;;;3.05;100.00;92271.53;4957251;29;20224;-81
2023/11/13 05:58:04;;;;;;;0.70;0.70;;;;;;;3.04;100.00;92274.34;4962758;28;20545;-79
2023/11/13 06:00:31;;;;;;;1.42;0.85;;;;;;;3.04;100.00;92269.97;4952991;29;20039;-81
2023/11/13 06:02:56;;;;;;;0.93;0.80;;;;;;;3.05;100.00;92273.34;4935693;28;20035;-81
2023/11/13 06:05:22;;;;;;;0.98;0.90;;;;;;;3.07;100.00;92290.19;4935171;29;20614;-82
2023/11/13 06:07:48;;;;;;;1.00;0.90;;;;;;;3.07;100.00;92282.41;4934832;29;20062;-81
2023/11/13 06:10:16;;;;;;;1.15;0.93;;;;;;;3.12;100.00;92292.03;4958527;29;20090;-82
2023/11/13 06:12:43;;;;;;;1.10;0.88;;;;;;;3.16;100.00;92297.50;4941140;29;20063;-84
2023/11/13 06:15:19;;;;;;;0.70;0.70;;;;;;;3.16;100.00;92298.28;4940053;29;20035;-78
2023/11/13 06:17:46;;;;;;;2.17;1.30;;;;;;;3.18;100.00;92298.03;4939923;29;20055;-80
2023/11/13 06:20:15;;;;;;;3.40;1.63;;;;;;;3.19;100.00;92286.66;4939918;29;20023;-78
2023/11/13 06:22:42;;;;;;;2.45;1.30;;;;;;;3.19;100.00;92292.59;4945331;29;20524;-79
2023/11/13 06:25:11;;;;;;;1.70;1.20;;;;;;;3.23;100.00;92279.97;4956028;29;20043;-78
2023/11/13 06:27:38;;;;;;;1.55;1.00;;;;;;;3.24;100.00;92281.53;4948478;29;20397;-79
2023/11/13 06:30:05;;;;;;;1.10;1.00;;;;;;;3.26;100.00;92279.47;4955441;29;20029;-79
2023/11/13 06:32:31;;;;;;;1.45;1.10;;;;;;;3.27;100.00;92284.41;4955237;29;20126;-80
2023/11/13 06:34:57;;;;;;;0.90;0.90;;;;;;;3.26;100.00;92280.25;4948418;29;20075;-78
2023/11/13 06:37:23;;;;;;;1.90;1.13;;;;;;;3.33;100.00;92287.81;4939702;29;20086;-78
2023/11/13 06:39:49;;;;;;;2.70;1.70;;;;;;;3.71;100.00;92286.03;4938776;29;20043;-78
2023/11/13 06:42:14;;;;;;;1.58;1.27;;;;;;;4.64;100.00;92280.31;4946054;29;20065;-79
2023/11/13 06:44:41;;;;;;;1.40;1.10;;;;;;;5.68;100.00;92287.22;4941755;29;20041;-79
2023/11/13 06:47:07;;;;;;;3.17;1.00;;;;;;;6.65;100.00;92290.41;4955913;28;20043;-78
2023/11/13 06:49:33;;;;;;;3.60;2.40;;;;;;;7.47;100.00;92310.03;4938523;29;20135;-78
2023/11/13 06:51:59;;;;;;;3.30;2.00;;;;;;;8.33;100.00;92326.03;4955255;28;20031;-79
2023/11/13 06:54:25;;;;;;;2.63;1.45;;;;;;;9.24;100.00;92317.50;4940995;29;20047;-78
2023/11/13 06:56:50;;;;;;;1.05;0.95;;;;;;;9.93;94.73;92317.78;4955327;29;20054;-80
2023/11/13 06:59:17;;;;;;;1.40;1.00;;;;;;;10.59;89.37;92318.56;4947573;29;20578;-79
2023/11/13 07:01:42;;;;;;;1.85;1.20;;;;;;;11.25;85.17;92314.66;4951764;29;20024;-79
2023/11/13 07:04:11;;;;;;;4.20;1.40;;;;;;;11.92;80.64;92321.09;4938773;29;20458;-80
2023/11/13 07:06:38;;;;;;;1.55;1.00;;;;;;;12.59;72.86;92336.03;4954358;29;20171;-80
2023/11/13 07:09:10;;;;;;;2.70;1.48;;;;;;;12.96;68.58;92335.88;4947250;29;20043;-79
2023/11/13 07:11:43;;;;;;;1.83;1.38;;;;;;;13.72;64.56;92346.13;4954644;29;20627;-80
2023/11/13 07:14:12;;;;;;;1.95;1.30;;;;;;;14.14;61.59;92351.72;4955139;29;20035;-79
2023/11/13 07:16:39;;;;;;;3.35;2.10;;;;;;;14.50;62.18;92356.63;4947234;29;20384;-79
2023/11/13 07:19:05;;;;;;;2.17;1.30;;;;;;;15.25;58.54;92368.66;4955622;29;20074;-80
2023/11/13 07:21:31;;;;;;;1.67;1.00;;;;;;;15.64;56.00;92366.75;4956549;28;20047;-80
2023/11/13 07:23:58;;;;;;;1.38;1.05;;;;;;;16.23;50.79;92369.31;4947839;29;20506;-80
2023/11/13 07:26:26;;;;;;;2.78;1.77;;;;;;;16.84;48.11;92392.56;4947699;29;20041;-80
2023/11/13 07:28:52;;;;;;;1.92;1.27;;;;;;;17.12;49.58;92378.75;4956380;29;20039;-82
2023/11/13 07:31:19;;;;;;;1.08;0.73;;;;;;;17.88;46.06;92393.22;4941240;29;20023;-82
2023/11/13 07:33:48;;;;;;;1.00;0.70;;;;;;;18.41;44.34;92378.06;4936772;28;20093;-81
2023/11/13 07:36:14;;;;;;;1.05;0.93;;;;;;;17.32;45.26;92391.09;4955291;28;20047;-83
2023/11/13 07:38:42;;;;;;;2.05;1.17;;;;;;;16.56;46.62;92410.84;4955252;28;20046;-83
2023/11/13 07:41:16;;;;;;;2.33;1.20;;;;;;;17.03;49.25;92413.22;4956595;29;20556;-83
2023/11/13 07:43:43;;;;;;;2.45;1.00;;;;;;;17.15;47.33;92404.53;4952250;29;20035;-81
2023/11/13 07:46:10;;;;;;;1.88;1.27;;;;;;;17.72;46.29;92405.53;4945934;29;20114;-80
2023/11/13 07:48:36;;;;;;;1.80;1.20;;;;;;;18.37;46.41;92411.63;4950655;29;20039;-81
2023/11/13 07:51:06;;;;;;;1.67;0.95;;;;;;;18.73;47.01;92410.75;4939487;29;20066;-82
2023/11/13 07:53:33;;;;;;;1.52;1.10;;;;;;;19.08;45.99;92423.44;4949530;29;20106;-81
2023/11/13 07:56:00;;;;;;;5.95;1.20;;;;;;;18.95;43.79;92416.63;4948284;29;20114;-82
2023/11/13 07:58:26;;;;;;;2.60;1.20;;;;;;;20.01;42.15;92422.25;4934834;29;20040;-80
2023/11/13 08:00:53;;;;;;;1.52;1.10;;;;;;;20.46;40.91;92410.28;4935170;29;20133;-81
2023/11/13 08:03:23;;;;;;;1.85;1.13;;;;;;;21.39;38.49;92417.34;4948211;28;20040;-81
2023/11/13 08:05:49;;;;;;;2.05;1.05;;;;;;;22.84;34.10;92423.63;4949871;29;20467;-80
2023/11/13 08:08:16;;;;;;;3.00;1.73;;;;;;;22.62;34.46;92426.03;4957030;28;20491;-82
2023/11/13 08:10:48;;;;;;;2.25;1.30;;;;;;;20.76;37.19;92423.84;4933778;29;20156;-83
2023/11/13 08:13:14;;;;;;;;;;;;;;;20.34;38.70;92413.06;4922098;29;20408;-84
2023/11/13 08:15:42;;;;;;;2.53;1.40;;;;;;;20.03;42.05;92404.06;4955801;29;19926;-85
2023/11/13 08:18:18;;;;;;;2.45;1.17;;;;;;;20.41;40.36;92402.59;4938616;29;20038;-83
2023/11/13 08:20:46;;;;;;;2.83;1.20;;;;;;;21.17;37.29;92404.81;4910508;29;20131;-82
2023/11/13 08:23:13;;;;;;;1.83;1.02;;;;;;;20.49;37.50;92398.97;4952862;29;20043;-78
2023/11/13 08:25:46;;;;;;;1.88;1.13;;;;;;;19.62;37.89;92397.44;4953695;29;20495;-78
2023/11/13 08:28:13;;;;;;;1.80;1.10;;;;;;;18.26;43.84;92395.47;4954216;28;20114;-79
2023/11/13 08:30:43;;;;;;;2.03;1.20;;;;;;;18.57;44.34;92401.19;4918725;29;20134;-79
2023/11/13 08:33:10;;;;;;;2.90;1.27;;;;;;;18.51;43.49;92395.38;4951454;29;20035;-79
2023/11/13 08:35:37;;;;;;;2.13;1.20;;;;;;;18.05;45.65;92402.78;4912672;29;20058;-79
2023/11/13 08:38:03;;;;;;;2.20;1.20;;;;;;;18.64;46.21;92383.63;4950029;28;20035;-78
2023/11/13 08:40:29;;;;;;;2.13;1.10;;;;;;;18.17;46.37;92386.88;4951286;29;20066;-79
2023/11/13 08:42:56;;;;;;;3.75;1.73;;;;;;;17.84;44.90;92381.75;4947690;29;20051;-79
2023/11/13 08:45:24;;;;;;;3.97;1.80;;;;;;;16.20;51.73;92373.38;4938817;28;20042;-78
2023/11/13 08:47:53;;;;;;;1.95;1.25;;;;;;;15.46;51.87;92380.03;4951787;29;20033;-79
2023/11/13 08:50:21;;;;;;;3.40;1.58;;;;;;;15.29;54.98;92388.81;4955692;28;20047;-79
2023/11/13 08:52:48;;;;;;;3.65;1.52;;;;;;;15.97;54.90;92390.63;4922125;29;20206;-78
2023/11/13 08:55:17;;;;;;;5.43;1.58;;;;;;;16.64;54.25;92388.84;4952187;29;20070;-78
2023/11/13 08:57:47;;;;;;;2.75;1.42;;;;;;;15.65;53.66;92392.81;4948502;28;20026;-79
2023/11/13 09:00:21;;;;;;;3.17;1.48;;;;;;;15.70;55.50;92392.63;4951869;29;20122;-78
2023/11/13 09:02:48;;;;;;;2.75;1.40;;;;;;;15.68;55.11;92402.72;4948729;29;20039;-79
2023/11/13 09:05:15;;;;;;;2.72;1.25;;;;;;;15.54;55.63;92400.31;4953694;29;20046;-78
2023/11/13 09:07:41;;;;;;;3.70;1.50;;;;;;;15.35;56.84;92413.91;4952775;29;20121;-79
2023/11/13 09:10:08;;;;;;;2.28;1.08;;;;;;;14.59;52.53;92414.59;4953250;29;20027;-79
2023/11/13 09:12:36;;;;;;;2.30;1.00;;;;;;;14.87;55.15;92414.22;4954972;29;20670;-79
2023/11/13 09:15:11;;;;;;;1.48;1.10;;;;;;;14.88;54.80;92421.03;4937727;29;20046;-78
2023/11/13 09:17:45;;;;;;;2.08;1.30;;;;;;;14.93;56.01;92418.25;4941160;29;20050;-79
2023/11/13 09:20:15;;;;;;;2.20;1.17;;;;;;;14.54;57.88;92426.03;4952551;29;20035;-79
2023/11/13 09:22:44;;;;;;;1.88;1.00;;;;;;;14.79;50.34;92436.84;4929179;29;20047;-79
2023/11/13 09:25:17;;;;;;;3.22;1.10;;;;;;;14.05;54.09;92443.03;4946289;29;20062;-79
2023/11/13 09:28:01;;;;;;;1.30;0.90;;;;;;;13.57;57.33;92428.09;4940509;29;20047;-79
2023/11/13 09:30:26;;;;;;;2.60;1.70;;;;;;;13.21;67.33;92436.91;4942779;29;20032;-78
2023/11/13 09:32:53;;;;;;;3.38;1.30;;;;;;;13.23;63.26;92440.78;4937018;29;20289;-79
2023/11/13 09:35:24;;;;;;;2.78;1.52;;;;;;;13.27;67.56;92425.19;4936450;29;20055;-78
2023/11/13 09:37:56;;;;;;;2.85;1.55;;;;;;;13.68;60.40;92409.09;4946316;29;20031;-79
2023/11/13 09:40:25;;;;;;;1.17;0.90;;;;;;;13.03;62.23;92420.28;4947756;29;20036;-79
2023/11/13 09:42:52;;;;;;;2.03;1.17;;;;;;;13.46;62.59;92419.72;4947343;29;20087;-79
2023/11/13 09:45:20;;;;;;;4.68;1.50;;;;;;;13.37;64.82;92421.53;4954293;29;20552;-78
2023/11/13 09:47:47;;;;;;;2.97;1.20;;;;;;;13.42;63.39;92411.66;4948238;28;20043;-79
2023/11/13 09:50:17;;;;;;;4.05;1.55;;;;;;;13.74;68.02;92417.63;4934587;29;20036;-79
2023/11/13 09:52:52;;;;;;;5.30;1.50;;;;;;;14.25;64.62;92405.59;4943315;29;20039;-79
2023/11/13 09:55:20;;;;;;;2.40;1.42;;;;;;;14.55;62.33;92392.59;4952547;29;20407;-79
2023/11/13 09:57:51;;;;;;;3.92;1.50;;;;;;;14.54;64.33;92391.00;4943769;28;20055;-79
2023/11/13 10:00:25;;;;;;;3.85;1.50;;;;;;;13.96;68.93;92382.53;4943688;29;20050;-79
2023/11/13 10:02:53;;;;;;;1.48;1.13;;;;;;;13.28;70.78;92387.31;4942559;29;20047;-78
2023/11/13 10:05:21;;;;;;;1.88;1.25;;;;;;;12.41;66.32;92395.53;4947217;29;20032;-79
2023/11/13 10:07:53;;;;;;;2.85;1.30;;;;;;;12.49;67.75;92391.41;4954706;28;20039;-79
2023/11/13 10:10:40;;;;;;;2.88;1.60;;;;;;;13.35;71.43;92379.00;4946267;29;20091;-79
2023/11/13 10:13:10;;;;;;;3.10;1.48;;;;;;;13.35;65.66;92379.75;4946415;29;20518;-77
2023/11/13 10:15:37;;;;;;;1.90;1.20;;;;;;;12.94;66.75;92385.31;4948201;29;20090;-79
2023/11/13 10:18:12;;;;;;;3.40;1.77;;;;;;;12.87;71.36;92380.50;4952811;28;20035;-78
2023/11/13 10:20:55;;;;;;;2.42;1.38;;;;;;;12.50;68.88;92374.59;4944267;29;20054;-79
2023/11/13 10:23:31;;;;;;;4.03;1.50;;;;;;;12.46;70.94;92371.03;4946080;29;20306;-79
2023/11/13 10:25:58;;;;;;;4.88;1.73;;;;;;;12.17;77.02;92371.44;4939883;29;20043;-79
2023/11/13 10:28:40;;;;;;;6.03;1.58;;;;;;;12.38;72.91;92372.50;4950450;29;20027;-79
2023/11/13 10:31:12;;;;;;;2.88;1.67;;;;;;;12.83;72.77;92377.69;4958184;29;20097;-78
2023/11/13 10:33:39;;;;;;;;;;;;;;;12.73;69.45;92377.19;4958487;29;20122;-79
2023/11/13 10:36:17;;;;;;;3.22;1.30;;;;;;;12.66;71.11;92360.00;4939885;29;19982;-77
2023/11/13 10:38:47;;;;;;;3.53;1.60;;;;;;;12.78;72.00;92366.56;4934331;29;20040;-78
2023/11/13 10:41:34;;;;;;;3.22;1.60;;;;;;;12.68;73.35;92362.34;4948424;29;20039;-78
2023/11/13 10:44:20;;;;;;;4.90;1.63;;;;;;;12.31;74.81;92361.66;4948872;29;20058;-78
2023/11/13 10:46:46;;;;;;;2.92;1.52;;;;;;;12.08;74.42;92366.91;4954292;29;20046;-78
2023/11/13 10:49:12;;;;;;;2.15;1.42;;;;;;;12.02;75.56;92383.06;4950124;29;20028;-78
2023/11/13 10:51:40;;;;;;;3.10;1.65;;;;;;;12.08;74.02;92381.88;4957566;29;20133;-78
2023/11/13 10:54:08;;;;;;;2.22;1.35;;;;;;;12.63;71.95;92386.88;4950163;29;20054;-77
2023/11/13 10:56:34;;;;;;;6.30;1.77;;;;;;;12.80;70.17;92385.41;4949690;29;20050;-78
2023/11/13 10:59:02;;;;;;;5.60;1.80;;;;;;;12.82;71.84;92383.25;4954205;29;20071;-77
2023/11/13 11:01:29;;;;;;;1.55;1.20;;;;;;;12.59;70.96;92390.41;4945343;29;20533;-78
2023/11/13 11:04:05;;;;;;;2.08;1.23;;;;;;;12.21;74.18;92385.53;4952624;29;20412;-78
2023/11/13 11:06:35;;;;;;;3.10;1.50;;;;;;;11.78;73.88;92393.78;4949295;29;20027;-77
2023/11/13 11:09:07;;;;;;;4.97;1.80;;;;;;;11.56;77.53;92408.38;4932135;29;20055;-78
2023/11/13 11:11:35;;;;;;;3.20;1.60;;;;;;;11.68;74.40;92400.00;4949059;29;20044;-77
2023/11/13 11:14:09;;;;;;;2.10;1.10;;;;;;;12.31;69.87;92389.75;4957172;29;20114;-78
2023/11/13 11:17:15;;;;;;;2.60;1.17;;;;;;;13.02;68.25;92398.50;4942821;29;20483;-78
2023/11/13 11:19:45;;;;;;;3.25;1.58;;;;;;;12.91;70.95;92397.22;4923070;29;20048;-78
2023/11/13 11:22:27;;;;;;;3.08;1.55;;;;;;;12.88;70.76;92400.44;4955395;29;20047;-78
2023/11/13 11:25:04;;;;;;;1.83;1.30;;;;;;;12.21;75.67;92394.16;4957147;29;20062;-77
2023/11/13 11:27:35;;;;;;;3.47;1.65;;;;;;;11.66;78.57;92402.16;4949016;28;20087;-77
2023/11/13 11:30:01;;;;;;;4.22;1.90;;;;;;;11.46;78.31;92405.97;4939400;29;20570;-78
2023/11/13 11:32:31;;;;;;;3.90;1.73;;;;;;;11.52;82.68;92401.41;4957217;28;20024;-77
2023/11/13 11:35:04;;;;;;;3.58;1.67;;;;;;;11.70;79.17;92386.63;4953930;29;20047;-78
2023/11/13 11:37:35;;;;;;;4.47;1.80;;;;;;;11.54;79.82;92383.53;4956096;28;20043;-78